Latest Coastal Weather Observations for Ngayawili (Elcho Island)

IDD60701

Issued at 11:41 pm CST Sunday 22 January 2017 (issued every 10 minutes, with the page automatically refreshed every 10 minutes)

About coastal observations | Map of coastal stations | Coastal observations for NT | Marine services | Other Formats
Station Details ID: 014517 Name: NGAYAWILI Lat: -12.00 Lon: 135.57 Height: 8.1 m
Data from the previous 72 hours. | See also: Recent months at Ngayawili (Elcho Island)
Date/Time
CST
Temp
°C
Wind Pressure Rain since
9am
mm
Weather Cloud Vis
km
Sea
Height
m
Swell
Dir  Spd
kts
Gust
kts
hPa Trend Height
m
Period
s
Dir
22/11:30pm 26.1 WNW 26 32 1007.3 - 158.8 - - - - - - -
22/11:00pm 26.3 NW 24 28 1007.3 - 156.6 - - - - - - -
22/10:30pm 25.9 WNW 22 26 1007.9 - 154.8 - - - - - - -
22/10:00pm 25.7 WNW 26 30 1007.9 - 153.2 - - - - - - -
22/09:50pm 25.7 NW 23 30 1007.7 - 152.6 - - - - - - -
22/09:30pm 26.4 NW 25 30 1007.5 - 151.2 - - - - - - -
22/09:00pm 26.1 NW 25 32 1007.0 - 150.0 Rain - - - - - -
22/08:30pm 25.8 NW 24 29 1007.0 - 148.2 - - - - - - -
22/08:07pm 25.6 NW 23 33 1007.2 - 141.2 - - - - - - -
22/08:00pm 26.0 NW 21 27 1007.2 - 139.2 - - - - - - -
22/07:30pm 25.8 NW 23 29 1007.4 - 112.4 - - - - - - -
22/07:16pm 26.1 NW 20 30 1007.1 - 101.4 - - - - - - -
22/07:00pm 26.3 NW 16 22 1007.0 - 94.4 - - - - - - -
22/06:57pm 26.0 NW 17 20 1007.1 - 93.4 - - - - - - -
22/06:30pm 25.2 N 11 15 1007.0 - 91.6 - - - - - - -
22/06:00pm 24.9 NNW 20 24 1006.8 - 83.6 Showers - - - - - -
22/05:51pm 25.2 NW 18 24 1006.7 - 73.6 - - - - - - -
22/05:45pm 25.5 WNW 14 23 1006.8 - 67.0 - - - - - - -
22/05:30pm 24.8 W 10 13 1006.6 - 53.8 - - - - - - -
22/05:09pm 24.4 WNW 12 28 1006.2 - 43.6 - - - - - - -
22/05:00pm 25.7 W 7 10 1006.1 - 37.0 - - - - - - -
22/04:30pm 25.6 W 5 7 1006.1 - 27.2 - - - - - - -
22/04:00pm 24.9 WNW 7 9 1006.1 - 21.0 - - - - - - -
22/03:30pm 25.0 W 11 13 1006.1 - 19.2 - - - - - - -
22/03:03pm 26.2 WNW 17 25 1006.2 - 3.8 - - - - - - -
22/03:00pm 27.0 NW 17 23 1006.3 - 3.6 Recent precip. - - - - - -
22/02:30pm 27.8 NNW 18 21 1006.1 - 3.6 - - - - - - -
22/02:00pm 27.0 NW 15 18 1006.8 - 3.4 - - - - - - -
22/01:53pm 26.6 NW 16 19 1006.9 - 2.0 - - - - - - -
22/01:30pm 26.9 NW 20 25 1007.1 - 0.0 - - - - - - -
22/01:00pm 28.7 NW 15 19 1007.2 - 0.0 - - - - - - -
22/12:30pm 30.1 WNW 10 13 1007.7 - 0.0 - - - - - - -
22/12:00pm 30.0 W 9 11 1008.5 - 0.0 - - - - - - -
22/11:30am 30.4 W 10 12 1008.7 - 0.0 - - - - - - -
22/11:00am 29.7 W 9 13 1009.1 - 0.0 - - - - - - -
22/10:30am 29.6 WSW 11 13 1009.4 - 0.0 - - - - - - -
22/10:00am 29.8 W 8 11 1009.8 - 0.0 - - - - - - -
22/09:30am 29.5 WSW 10 13 1009.4 - 0.0 - - - - - - -
22/09:00am 29.0 WSW 13 15 1009.6 - 11.2 - - - - - - -
22/08:30am 28.8 WSW 14 16 1009.2 - 11.2 - - - - - - -
22/08:00am 28.2 WSW 12 15 1009.1 - 11.2 - - - - - - -
22/07:30am 28.0 WSW 13 15 1008.7 - 11.2 - - - - - - -
22/07:00am 27.8 WSW 15 17 1008.1 - 11.2 - - - - - - -
22/06:30am 27.8 WSW 16 18 1007.9 - 11.2 - - - - - - -
22/06:00am 27.5 WSW 15 18 1007.5 - 11.2 - - - - - - -
22/05:30am 27.5 WSW 14 17 1007.5 - 11.2 - - - - - - -
22/05:00am 27.6 WSW 17 19 1007.4 - 11.2 - - - - - - -
22/04:30am 27.1 WSW 15 18 1007.4 - 11.2 - - - - - - -
22/04:00am 26.7 SW 12 14 1007.4 - 11.2 - - - - - - -
22/03:30am 26.5 SW 11 14 1007.7 - 11.2 - - - - - - -
22/03:00am 26.3 SSW 7 9 1008.1 - 11.0 Recent precip. - - - - - -
22/02:30am 25.7 SE 5 6 1008.2 - 10.8 - - - - - - -
22/02:00am 25.8 SSE 6 8 1008.4 - 10.8 - - - - - - -
22/01:30am 26.3 SSE 7 10 1008.7 - 10.4 - - - - - - -
22/01:00am 27.0 W 8 11 1008.9 - 10.2 - - - - - - -
22/12:30am 26.8 W 7 9 1009.3 - 10.0 - - - - - - -
22/12:00am 26.5 W 8 9 1009.7 - 10.0 Recent precip. - - - - - -
 
Date/Time
CST
Temp
°C
Wind Pressure Rain since
9am
mm
Weather Cloud Vis
km
Sea
Height
m
Swell
Dir  Spd
kts
Gust
kts
hPa Trend Height
m
Period
s
Dir
21/11:30pm 26.1 WSW 8 10 1010.4 - 9.6 - - - - - - -
21/11:00pm 26.1 WNW 8 9 1010.7 - 9.0 - - - - - - -
21/10:30pm 25.8 WNW 10 11 1010.5 - 8.4 - - - - - - -
21/10:00pm 25.7 WNW 12 14 1010.2 - 7.6 - - - - - - -
21/09:30pm 25.9 W 12 15 1010.4 - 6.4 - - - - - - -
21/09:00pm 26.9 W 11 17 1010.1 - 4.8 Rain - - - - - -
21/08:30pm 25.3 WNW 21 27 1009.5 - 3.0 - - - - - - -
21/08:11pm 28.9 NW 15 26 1008.9 - 1.2 - - - - - - -
21/08:00pm 28.7 NW 15 17 1008.8 - 1.0 - - - - - - -
21/07:30pm 28.5 NW 12 14 1008.3 - 0.4 - - - - - - -
21/07:00pm 29.5 NW 13 16 1008.2 - 0.2 - - - - - - -
21/06:30pm 29.4 NW 14 16 1008.2 - 0.2 - - - - - - -
21/06:00pm 29.6 NW 14 16 1007.6 - 0.2 - - - - - - -
21/05:30pm 29.6 NW 13 16 1007.2 - 0.2 - - - - - - -
21/05:00pm 30.2 NNW 11 13 1006.8 - 0.2 - - - - - - -
21/04:30pm 30.3 NNW 13 16 1006.7 - 0.2 - - - - - - -
21/04:00pm 30.5 NNW 15 17 1006.3 - 0.2 - - - - - - -
21/03:30pm 31.0 NW 14 16 1006.7 - 0.2 - - - - - - -
21/03:00pm 30.9 NNW 13 15 1007.0 - 0.2 - - - - - - -
21/02:30pm 31.1 NW 14 16 1007.4 - 0.2 - - - - - - -
21/02:00pm 30.8 NW 11 13 1008.2 - 0.2 - - - - - - -
21/01:30pm 31.4 WNW 11 12 1008.7 - 0.2 - - - - - - -
21/01:00pm 30.5 WNW 10 13 1009.0 - 0.2 - - - - - - -
21/12:30pm 30.6 WNW 10 12 1009.3 - 0.2 - - - - - - -
21/12:00pm 30.3 WNW 9 11 1009.5 - 0.2 Recent precip. - - - - - -
21/11:30am 30.0 WNW 9 11 1009.8 - 0.0 - - - - - - -
21/11:00am 30.0 W 9 11 1010.0 - 0.0 - - - - - - -
21/10:30am 29.3 WSW 7 9 1010.1 - 0.0 - - - - - - -
21/10:00am 29.2 WSW 6 8 1010.2 - 0.0 - - - - - - -
21/09:30am 28.4 SW 5 7 1010.1 - 0.0 - - - - - - -
21/09:00am 28.2 SW 5 7 1010.2 - 14.4 - - - - - - -
21/08:30am 28.0 SW 8 9 1010.4 - 14.4 - - - - - - -
21/08:00am 27.7 WSW 7 9 1010.4 - 14.4 - - - - - - -
21/07:30am 27.4 WSW 7 10 1010.2 - 14.4 - - - - - - -
21/07:00am 27.3 W 8 11 1010.2 - 14.4 - - - - - - -
21/06:30am 26.6 WSW 7 9 1009.8 - 14.4 - - - - - - -
21/06:00am 27.0 WSW 6 8 1009.5 - 14.2 - - - - - - -
21/05:30am 26.9 WSW 8 9 1009.2 - 14.2 - - - - - - -
21/05:00am 26.5 WSW 7 9 1008.9 - 14.2 - - - - - - -
21/04:30am 25.9 SW 5 7 1008.8 - 14.2 - - - - - - -
21/04:00am 26.0 SSE 4 6 1008.5 - 14.2 - - - - - - -
21/03:30am 26.6 WSW 7 9 1008.5 - 14.2 - - - - - - -
21/03:00am 26.6 W 6 8 1008.5 - 14.2 Recent precip. - - - - - -
21/02:30am 26.6 WSW 8 11 1008.7 - 14.0 - - - - - - -
21/02:00am 26.9 W 8 11 1008.8 - 14.0 - - - - - - -
21/01:30am 26.7 W 11 14 1008.9 - 14.0 - - - - - - -
21/01:00am 26.5 W 12 15 1009.1 - 14.0 - - - - - - -
21/12:30am 26.3 W 15 18 1009.7 - 14.0 - - - - - - -
21/12:00am 26.1 WSW 17 21 1010.2 - 14.0 Recent precip. - - - - - -
 
Date/Time
CST
Temp
°C
Wind Pressure Rain since
9am
mm
Weather Cloud Vis
km
Sea
Height
m
Swell
Dir  Spd
kts
Gust
kts
hPa Trend Height
m
Period
s
Dir
20/11:30pm 25.7 WSW 19 23 1009.8 - 13.8 - - - - - - -
20/11:18pm 25.5 SW 17 26 1009.8 - 12.4 - - - - - - -
20/11:13pm 26.3 SSW 11 20 1009.8 - 11.8 - - - - - - -
20/11:00pm 26.0 S 8 11 1009.5 - 11.6 - - - - - - -
20/10:41pm 26.3 SW 17 33 1009.8 - 10.4 - - - - - - -
20/10:35pm 26.3 WSW 19 33 1010.0 - 7.2 - - - - - - -
20/10:30pm 26.6 WSW 12 30 1009.8 - 3.8 - - - - - - -
20/10:00pm 27.5 W 10 12 1009.8 - 3.4 - - - - - - -
20/09:30pm 27.5 W 11 14 1009.8 - 3.4 - - - - - - -
20/09:00pm 27.3 WNW 13 15 1009.5 - 3.4 - - - - - - -
20/08:30pm 26.7 W 13 16 1009.3 - 3.4 - - - - - - -
20/08:00pm 26.3 WNW 17 22 1008.7 - 3.4 - - - - - - -
20/07:49pm 25.8 WSW 14 26 1008.4 - 3.2 - - - - - - -
20/07:30pm 26.6 WSW 11 15 1007.8 - 3.0 - - - - - - -
20/07:00pm 26.6 W 11 13 1007.8 - 2.2 - - - - - - -
20/06:30pm 26.7 W 13 17 1007.3 - 1.4 - - - - - - -
20/06:00pm 26.0 W 16 19 1007.1 - 0.4 Rain - - - - - -
20/05:30pm 26.6 W 25 30 1006.9 - 0.2 - - - - - - -
20/05:15pm 28.1 WNW 21 35 1006.2 - 0.0 - - - - - - -
20/05:12pm 28.9 WNW 16 29 1006.4 - 0.0 - - - - - - -
20/05:00pm 30.1 WNW 14 17 1006.0 - 0.0 - - - - - - -
20/04:30pm 30.1 NW 13 15 1006.0 - 0.0 - - - - - - -
20/04:00pm 30.2 WNW 14 16 1006.0 - 0.0 - - - - - - -
20/03:30pm 30.8 NW 14 17 1005.9 - 0.0 - - - - - - -
20/03:00pm 31.2 NW 13 15 1006.2 - 0.0 - - - - - - -
20/02:30pm 31.0 NW 14 16 1006.6 - 0.0 - - - - - - -
20/02:00pm 30.9 WNW 12 14 1006.9 - 0.0 - - - - - - -
20/01:30pm 30.8 WNW 10 13 1007.1 - 0.0 - - - - - - -
20/01:00pm 30.9 WNW 8 11 1007.5 - 0.0 - - - - - - -
20/12:30pm 30.5 W 8 11 1008.1 - 0.0 - - - - - - -
20/12:00pm 30.3 W 11 14 1008.5 - 0.0 - - - - - - -
20/11:30am 30.0 W 10 12 1008.9 - 0.0 - - - - - - -
20/11:00am 30.0 W 11 14 1009.1 - 0.0 - - - - - - -
20/10:30am 29.7 W 10 13 1009.3 - 0.0 - - - - - - -
20/10:00am 29.3 W 11 13 1009.4 - 0.0 - - - - - - -
20/09:30am 28.4 W 11 14 1009.3 - 0.0 - - - - - - -
20/09:00am 27.9 W 11 14 1009.0 - 5.4 - - - - - - -
20/08:30am 27.6 W 11 13 1008.7 - 5.4 - - - - - - -
20/08:00am 27.5 W 10 12 1008.4 - 5.4 - - - - - - -
20/07:30am 27.2 W 9 12 1008.0 - 5.4 - - - - - - -
20/07:00am 26.9 W 10 12 1007.9 - 5.4 - - - - - - -
20/06:30am 26.5 W 11 13 1007.8 - 5.4 - - - - - - -
20/06:00am 26.1 W 10 12 1007.6 - 5.4 Rain - - - - - -
20/05:30am 25.6 W 9 12 1007.4 - 5.2 - - - - - - -
20/05:00am 26.0 W 5 7 1007.4 - 4.8 - - - - - - -
20/04:30am 25.6 WSW 6 7 1007.3 - 4.0 - - - - - - -
20/04:00am 25.7 WSW 8 11 1007.4 - 3.4 - - - - - - -
20/03:30am 25.7 WSW 6 8 1007.9 - 2.2 - - - - - - -
20/03:00am 25.7 SSW 7 10 1008.0 - 1.0 Rain - - - - - -
20/02:30am 25.3 S 4 6 1008.2 - 0.2 - - - - - - -
20/02:00am 25.2 SSE 6 8 1008.0 - 0.2 - - - - - - -
20/01:30am 25.5 S 8 10 1008.3 - 0.2 - - - - - - -
20/01:00am 26.8 SSW 10 13 1008.6 - 0.0 - - - - - - -
20/12:30am 27.1 SW 10 12 1008.8 - 0.0 - - - - - - -
20/12:00am 27.5 WSW 9 11 1008.9 - 0.0 - - - - - - -

Other Formats:

Comma delimited format used in spreadsheet applications
http://www.bom.gov.au/fwo/IDD60701/IDD60701.95146.axf

JavaScript Object Notation format (JSON) in row-major order
http://www.bom.gov.au/fwo/IDD60701/IDD60701.95146.json